Time,TemperatureF,DewpointF,PressureIn,WindDirection,WindDirectionDegrees,WindSpeedMPH,WindSpeedGustMPH,Humidity,HourlyPrecipIn,Conditions,Clouds,dailyrainin,SolarRadiationWatts/m^2,SoftwareType,DateUTC
2013-07-05 00:02:00,73.0,43.0,-100.00,East,99,13.0,23.0,34,0.00,,,0.00,1.000000,,2013-07-05 06:02:00,
2013-07-05 00:13:00,73.0,43.0,-100.00,East,99,13.0,23.0,34,0.00,,,0.00,1.000000,,2013-07-05 06:13:00,
2013-07-05 00:44:00,71.0,42.0,-100.00,ESE,115,6.0,19.0,35,0.00,,,0.00,1.000000,,2013-07-05 06:44:00,
2013-07-05 00:53:00,71.0,42.0,-100.00,ESE,115,6.0,19.0,35,0.00,,,0.00,1.000000,,2013-07-05 06:53:00,
2013-07-05 01:02:00,71.0,42.0,-100.00,ESE,115,6.0,19.0,35,0.00,,,0.00,1.000000,,2013-07-05 07:02:00,
2013-07-05 01:12:00,71.0,42.0,-100.00,ESE,115,6.0,19.0,35,0.00,,,0.00,1.000000,,2013-07-05 07:12:00,
2013-07-05 01:43:00,71.0,42.0,-100.00,SSE,154,10.0,19.0,35,0.00,,,0.00,1.000000,,2013-07-05 07:43:00,
2013-07-05 01:53:00,71.0,42.0,-100.00,SSE,154,10.0,19.0,35,0.00,,,0.00,1.000000,,2013-07-05 07:53:00,
2013-07-05 02:02:00,71.0,42.0,-100.00,SSE,154,10.0,19.0,35,0.00,,,0.00,1.000000,,2013-07-05 08:02:00,
2013-07-05 02:12:00,71.0,42.0,-100.00,SSE,154,10.0,19.0,35,0.00,,,0.00,1.000000,,2013-07-05 08:12:00,
2013-07-05 02:15:00,69.0,42.0,-100.00,SE,144,8.0,18.0,37,0.00,,,0.00,1.000000,,2013-07-05 08:15:00,
2013-07-05 02:44:00,69.0,42.0,-100.00,SE,144,8.0,18.0,37,0.00,,,0.00,1.000000,,2013-07-05 08:44:00,
2013-07-05 02:57:00,69.0,42.0,-100.00,SE,144,8.0,18.0,37,0.00,,,0.00,1.000000,,2013-07-05 08:57:00,
2013-07-05 03:07:00,69.0,42.0,-100.00,SE,144,8.0,18.0,37,0.00,,,0.00,1.000000,,2013-07-05 09:07:00,
2013-07-05 03:15:00,70.0,43.0,-100.00,SSE,168,11.0,22.0,38,0.00,,,-99.99,1.000000,,2013-07-05 09:15:00,
2013-07-05 03:48:00,70.0,43.0,-100.00,SSE,168,11.0,22.0,38,0.00,,,-99.99,1.000000,,2013-07-05 09:48:00,
2013-07-05 03:56:00,70.0,43.0,-100.00,SSE,168,11.0,22.0,38,0.00,,,-99.99,1.000000,,2013-07-05 09:56:00,
2013-07-05 04:06:00,70.0,43.0,-100.00,SSE,168,11.0,22.0,38,0.00,,,-99.99,1.000000,,2013-07-05 10:06:00,
2013-07-05 04:15:00,69.0,45.0,-100.00,SSE,152,9.0,16.0,42,0.00,,,0.00,1.000000,,2013-07-05 10:15:00,
2013-07-05 04:47:00,69.0,45.0,-100.00,SSE,152,9.0,16.0,42,0.00,,,0.00,1.000000,,2013-07-05 10:47:00,
2013-07-05 04:57:00,69.0,45.0,-100.00,SSE,152,9.0,16.0,42,0.00,,,0.00,1.000000,,2013-07-05 10:57:00,
2013-07-05 05:07:00,69.0,45.0,-100.00,SSE,152,9.0,16.0,42,0.00,,,0.00,1.000000,,2013-07-05 11:07:00,
2013-07-05 05:50:00,69.0,46.0,-100.00,SSE,168,11.0,16.0,43,0.00,,,0.00,1.000000,,2013-07-05 11:50:00,
2013-07-05 06:00:00,69.0,46.0,-100.00,SSE,168,11.0,16.0,43,0.00,,,0.00,1.000000,,2013-07-05 12:00:00,
2013-07-05 06:07:00,69.0,46.0,-100.00,SSE,168,11.0,16.0,43,0.00,,,0.00,1.000000,,2013-07-05 12:07:00,
2013-07-05 07:00:00,67.0,46.0,-100.00,SE,144,5.0,14.0,47,0.00,,,0.00,2.000000,,2013-07-05 13:00:00,
2013-07-05 07:05:00,67.0,46.0,-100.00,SE,144,5.0,14.0,47,0.00,,,0.00,2.000000,,2013-07-05 13:05:00,
2013-07-05 07:13:00,67.0,46.0,-100.00,SE,144,5.0,14.0,47,0.00,,,0.00,2.000000,,2013-07-05 13:13:00,
2013-07-05 07:49:00,68.0,47.0,-100.00,ESE,106,3.0,10.0,47,0.00,,,0.00,61.000000,,2013-07-05 13:49:00,
2013-07-05 07:58:00,68.0,47.0,-100.00,ESE,106,3.0,10.0,47,0.00,,,0.00,61.000000,,2013-07-05 13:58:00,
2013-07-05 08:07:00,68.0,47.0,-100.00,ESE,106,3.0,10.0,47,0.00,,,0.00,61.000000,,2013-07-05 14:07:00,
2013-07-05 08:15:00,74.0,45.0,-100.00,WSW,258,7.0,11.0,36,0.00,,,0.00,254.000000,,2013-07-05 14:15:00,
2013-07-05 08:47:00,74.0,45.0,-100.00,WSW,258,7.0,11.0,36,0.00,,,0.00,254.000000,,2013-07-05 14:47:00,
2013-07-05 08:57:00,74.0,45.0,-100.00,WSW,258,7.0,11.0,36,0.00,,,0.00,254.000000,,2013-07-05 14:57:00,
2013-07-05 09:05:00,74.0,45.0,-100.00,WSW,258,7.0,11.0,36,0.00,,,0.00,254.000000,,2013-07-05 15:05:00,
2013-07-05 09:43:00,78.0,45.0,-100.00,NW,306,6.0,10.0,31,0.00,,,0.00,407.000000,,2013-07-05 15:43:00,
2013-07-05 09:53:00,78.0,45.0,-100.00,NW,306,6.0,10.0,31,0.00,,,0.00,407.000000,,2013-07-05 15:53:00,
2013-07-05 10:02:00,78.0,45.0,-100.00,NW,306,6.0,10.0,31,0.00,,,0.00,407.000000,,2013-07-05 16:02:00,
2013-07-05 10:44:00,80.0,44.0,-100.00,NW,311,6.0,13.0,28,0.00,,,0.00,510.000000,,2013-07-05 16:44:00,
2013-07-05 10:53:00,80.0,44.0,-100.00,NW,311,6.0,13.0,28,0.00,,,0.00,510.000000,,2013-07-05 16:53:00,
2013-07-05 11:02:00,80.0,44.0,-100.00,NW,311,6.0,13.0,28,0.00,,,0.00,510.000000,,2013-07-05 17:02:00,
2013-07-05 11:12:00,80.0,44.0,-100.00,NW,311,6.0,13.0,28,0.00,,,0.00,510.000000,,2013-07-05 17:12:00,
2013-07-05 11:43:00,82.0,42.0,-100.00,West,264,9.0,15.0,24,0.00,,,0.00,646.000000,,2013-07-05 17:43:00,
2013-07-05 11:53:00,82.0,42.0,-100.00,West,264,9.0,15.0,24,0.00,,,0.00,646.000000,,2013-07-05 17:53:00,
2013-07-05 12:01:00,82.0,42.0,-100.00,West,264,9.0,15.0,24,0.00,,,0.00,646.000000,,2013-07-05 18:01:00,
2013-07-05 12:11:00,82.0,42.0,-100.00,West,264,9.0,15.0,24,0.00,,,0.00,646.000000,,2013-07-05 18:11:00,
2013-07-05 12:43:00,84.0,41.0,-100.00,WSW,256,11.0,18.0,22,0.00,,,0.00,887.000000,,2013-07-05 18:43:00,
2013-07-05 12:53:00,84.0,41.0,-100.00,WSW,256,11.0,18.0,22,0.00,,,0.00,887.000000,,2013-07-05 18:53:00,
2013-07-05 13:01:00,84.0,41.0,-100.00,WSW,256,11.0,18.0,22,0.00,,,0.00,887.000000,,2013-07-05 19:01:00,
2013-07-05 13:12:00,84.0,41.0,-100.00,WSW,256,11.0,18.0,22,0.00,,,0.00,887.000000,,2013-07-05 19:12:00,
2013-07-05 13:43:00,86.0,40.0,-100.00,WSW,251,8.0,16.0,20,0.00,,,0.00,882.000000,,2013-07-05 19:43:00,
2013-07-05 13:53:00,86.0,40.0,-100.00,WSW,251,8.0,16.0,20,0.00,,,0.00,882.000000,,2013-07-05 19:53:00,
2013-07-05 14:01:00,86.0,40.0,-100.00,WSW,251,8.0,16.0,20,0.00,,,0.00,882.000000,,2013-07-05 20:01:00,
2013-07-05 14:11:00,86.0,40.0,-100.00,WSW,251,8.0,16.0,20,0.00,,,0.00,882.000000,,2013-07-05 20:11:00,
2013-07-05 14:43:00,89.0,40.0,-100.00,West,268,12.0,22.0,18,0.00,,,0.00,1127.000000,,2013-07-05 20:43:00,
2013-07-05 14:53:00,89.0,40.0,-100.00,West,268,12.0,22.0,18,0.00,,,0.00,1127.000000,,2013-07-05 20:53:00,
2013-07-05 15:01:00,89.0,40.0,-100.00,West,268,12.0,22.0,18,0.00,,,0.00,1127.000000,,2013-07-05 21:01:00,
2013-07-05 15:11:00,89.0,40.0,-100.00,West,268,12.0,22.0,18,0.00,,,0.00,1127.000000,,2013-07-05 21:11:00,
2013-07-05 15:43:00,89.0,38.0,-100.00,West,279,14.0,27.0,17,0.00,,,0.00,1088.000000,,2013-07-05 21:43:00,
2013-07-05 15:53:00,89.0,38.0,-100.00,West,279,14.0,27.0,17,0.00,,,0.00,1088.000000,,2013-07-05 21:53:00,
2013-07-05 16:01:00,89.0,38.0,-100.00,West,279,14.0,27.0,17,0.00,,,0.00,1088.000000,,2013-07-05 22:01:00,
2013-07-05 16:11:00,89.0,38.0,-100.00,West,279,14.0,27.0,17,0.00,,,0.00,1088.000000,,2013-07-05 22:11:00,
2013-07-05 16:43:00,89.0,38.0,-100.00,West,275,16.0,27.0,17,0.00,,,0.00,961.000000,,2013-07-05 22:43:00,
2013-07-05 16:53:00,89.0,38.0,-100.00,West,275,16.0,27.0,17,0.00,,,0.00,961.000000,,2013-07-05 22:53:00,
2013-07-05 17:02:00,89.0,38.0,-100.00,West,275,16.0,27.0,17,0.00,,,0.00,961.000000,,2013-07-05 23:02:00,
2013-07-05 17:11:00,89.0,38.0,-100.00,West,275,16.0,27.0,17,0.00,,,0.00,961.000000,,2013-07-05 23:11:00,
2013-07-05 17:43:00,90.0,36.0,-100.00,WNW,292,15.0,26.0,15,0.00,,,0.00,750.000000,,2013-07-05 23:43:00,
2013-07-05 17:53:00,90.0,36.0,-100.00,WNW,292,15.0,26.0,15,0.00,,,0.00,750.000000,,2013-07-05 23:53:00,
2013-07-05 18:01:00,90.0,36.0,-100.00,WNW,292,15.0,26.0,15,0.00,,,0.00,750.000000,,2013-07-06 00:01:00,
2013-07-05 18:11:00,90.0,36.0,-100.00,WNW,292,15.0,26.0,15,0.00,,,0.00,750.000000,,2013-07-06 00:11:00,
2013-07-05 18:43:00,89.0,37.0,-100.00,West,274,11.0,23.0,16,0.00,,,-99.99,596.000000,,2013-07-06 00:43:00,
2013-07-05 18:53:00,89.0,37.0,-100.00,West,274,11.0,23.0,16,0.00,,,-99.99,596.000000,,2013-07-06 00:53:00,
2013-07-05 19:02:00,89.0,37.0,-100.00,West,274,11.0,23.0,16,0.00,,,-99.99,596.000000,,2013-07-06 01:02:00,
2013-07-05 19:12:00,89.0,37.0,-100.00,West,274,11.0,23.0,16,0.00,,,-99.99,596.000000,,2013-07-06 01:12:00,
2013-07-05 19:43:00,82.0,39.0,-100.00,WSW,245,17.0,25.0,22,0.00,,,0.00,86.000000,,2013-07-06 01:43:00,
2013-07-05 19:53:00,82.0,39.0,-100.00,WSW,245,17.0,25.0,22,0.00,,,0.00,86.000000,,2013-07-06 01:53:00,
2013-07-05 20:02:00,82.0,39.0,-100.00,WSW,245,17.0,25.0,22,0.00,,,0.00,86.000000,,2013-07-06 02:02:00,
2013-07-05 20:12:00,82.0,39.0,-100.00,WSW,245,17.0,25.0,22,0.00,,,0.00,86.000000,,2013-07-06 02:12:00,
2013-07-05 20:43:00,78.0,42.0,-100.00,NE,49,9.0,26.0,28,0.00,,,0.00,14.000000,,2013-07-06 02:43:00,
2013-07-05 20:53:00,78.0,42.0,-100.00,NE,49,9.0,26.0,28,0.00,,,0.00,14.000000,,2013-07-06 02:53:00,
2013-07-05 21:02:00,78.0,42.0,-100.00,NE,49,9.0,26.0,28,0.00,,,0.00,14.000000,,2013-07-06 03:02:00,
2013-07-05 21:12:00,78.0,42.0,-100.00,NE,49,9.0,26.0,28,0.00,,,0.00,14.000000,,2013-07-06 03:12:00,
2013-07-05 21:43:00,77.0,44.0,-100.00,SW,226,8.0,23.0,31,0.00,,,0.00,1.000000,,2013-07-06 03:43:00,
2013-07-05 21:53:00,77.0,44.0,-100.00,SW,226,8.0,23.0,31,0.00,,,0.00,1.000000,,2013-07-06 03:53:00,
2013-07-05 22:02:00,77.0,44.0,-100.00,SW,226,8.0,23.0,31,0.00,,,0.00,1.000000,,2013-07-06 04:02:00,
2013-07-05 22:12:00,77.0,44.0,-100.00,SW,226,8.0,23.0,31,0.00,,,0.00,1.000000,,2013-07-06 04:12:00,
2013-07-05 22:43:00,66.0,53.0,-100.00,South,170,10.0,22.0,63,0.00,,,0.00,1.000000,,2013-07-06 04:43:00,
2013-07-05 22:53:00,66.0,53.0,-100.00,South,170,10.0,22.0,63,0.00,,,0.00,1.000000,,2013-07-06 04:53:00,
2013-07-05 23:02:00,66.0,53.0,-100.00,South,170,10.0,22.0,63,0.00,,,0.00,1.000000,,2013-07-06 05:02:00,
2013-07-05 23:12:00,66.0,53.0,-100.00,South,170,10.0,22.0,63,0.00,,,0.00,1.000000,,2013-07-06 05:12:00,
2013-07-05 23:43:00,65.0,54.0,-100.00,SSE,159,10.0,17.0,68,0.00,,,0.00,1.000000,,2013-07-06 05:43:00,
2013-07-05 23:53:00,65.0,54.0,-100.00,SSE,159,10.0,17.0,68,0.00,,,0.00,1.000000,,2013-07-06 05:53:00,